McMechen, West Virginia
Current Conditions -  °F | °C
As of 11:53 PM on Wednesday 22 Oct 2014 (Local Time) from KHLG Reporting Station
Broken Clouds Broken Clouds  
Wind Chill: 41°   Ceiling: 3300
Heat Index: 45°   Visibility: 10mi
Dew Point: 40°   Wind: 7mph
Humidity: 82%   Direction: 310°NW
Pressure: 30.18"   Gusts: NA
Location:  39.99°N, 80.73°W
Report Text: KHLG 230353Z AUTO 31006KT 10SM BKN033 07/04 A3018 RMK AO2 SLP228 T00720044
Loading
Personal Weather Stations






























Interactive Weather Map
Tropical Storm Tracking
New forecast layout! Learn more

10-Day Weather Forecast

Advertisements
Track Severe Weather on mobile